createdAt,value
2016-11-12T00:00:53.116Z,0
2016-11-12T00:01:53.159Z,0
2016-11-12T00:02:53.429Z,0
2016-11-12T00:03:53.277Z,0
2016-11-12T00:04:53.314Z,0
2016-11-12T00:05:53.385Z,0
2016-11-12T00:06:53.457Z,0
2016-11-12T00:07:53.512Z,0
2016-11-12T00:08:53.558Z,0
2016-11-12T00:09:53.598Z,0
2016-11-12T00:10:53.688Z,0
2016-11-12T00:11:53.733Z,0
2016-11-12T00:12:53.782Z,0
2016-11-12T00:13:53.842Z,0
2016-11-12T00:14:53.885Z,0
2016-11-12T00:15:53.950Z,0
2016-11-12T00:16:53.994Z,0
2016-11-12T00:17:54.085Z,0
2016-11-12T00:18:54.139Z,0
2016-11-12T00:19:54.175Z,0
2016-11-12T00:20:54.230Z,0
2016-11-12T00:21:54.280Z,0
2016-11-12T00:22:54.348Z,0
2016-11-12T00:23:54.418Z,0
2016-11-12T00:24:54.447Z,0
2016-11-12T00:25:54.506Z,0
2016-11-12T00:26:54.567Z,0
2016-11-12T00:27:54.630Z,0
2016-11-12T00:28:54.702Z,0
2016-11-12T00:29:54.740Z,0
2016-11-12T00:30:54.804Z,0
2016-11-12T00:31:54.854Z,0
2016-11-12T00:32:54.927Z,0
2016-11-12T00:33:54.973Z,0
2016-11-12T00:34:55.023Z,0
2016-11-12T00:35:55.082Z,0
2016-11-12T00:36:55.138Z,0
2016-11-12T00:37:55.181Z,0
2016-11-12T00:38:55.251Z,0
2016-11-12T00:39:55.313Z,0
2016-11-12T00:40:55.361Z,0
2016-11-12T00:41:55.398Z,0
2016-11-12T00:42:55.458Z,0
2016-11-12T00:43:55.511Z,0
2016-11-12T00:44:55.579Z,0
2016-11-12T00:45:55.655Z,0
2016-11-12T00:46:55.714Z,0
2016-11-12T00:47:55.743Z,0
2016-11-12T00:48:55.828Z,0
2016-11-12T00:49:55.867Z,0
2016-11-12T00:50:55.920Z,0
2016-11-12T00:51:55.982Z,0
2016-11-12T00:52:56.032Z,0
2016-11-12T00:53:56.088Z,0
2016-11-12T00:54:56.143Z,0
2016-11-12T00:55:56.199Z,0
2016-11-12T00:56:56.251Z,0
2016-11-12T00:57:56.318Z,0
2016-11-12T00:58:56.373Z,0
2016-11-12T00:59:56.437Z,0
2016-11-12T01:00:56.482Z,0
2016-11-12T01:01:56.556Z,0
2016-11-12T01:02:56.583Z,0
2016-11-12T01:03:56.646Z,0
2016-11-12T01:04:56.714Z,0
2016-11-12T01:05:56.769Z,0
2016-11-12T01:06:56.823Z,0
2016-11-12T01:07:56.858Z,0
2016-11-12T01:08:56.939Z,0
2016-11-12T01:09:56.986Z,0
2016-11-12T01:10:57.039Z,0
2016-11-12T01:11:57.083Z,0
2016-11-12T01:12:57.149Z,0
2016-11-12T01:13:57.537Z,0
2016-11-12T01:14:57.255Z,0
2016-11-12T01:15:57.326Z,0
2016-11-12T01:16:57.388Z,0
2016-11-12T01:17:57.436Z,0
2016-11-12T01:18:57.498Z,0
2016-11-12T01:19:57.559Z,0
2016-11-12T01:20:57.603Z,0
2016-11-12T01:21:57.673Z,0
2016-11-12T01:22:57.754Z,0
2016-11-12T01:23:57.769Z,0
2016-11-12T01:24:57.825Z,0
2016-11-12T01:25:57.906Z,0
2016-11-12T01:26:57.938Z,0
2016-11-12T01:27:57.979Z,0
2016-11-12T01:28:58.056Z,0
2016-11-12T01:29:58.100Z,0
2016-11-12T01:30:58.150Z,0
2016-11-12T01:31:58.269Z,0
2016-11-12T01:32:58.297Z,0
2016-11-12T01:33:58.337Z,0
2016-11-12T01:34:58.391Z,0
2016-11-12T01:35:58.453Z,0
2016-11-12T01:36:58.497Z,0
2016-11-12T01:37:58.571Z,0
2016-11-12T01:38:58.618Z,0
2016-11-12T01:39:58.667Z,0
2016-11-12T01:40:58.727Z,0
2016-11-12T01:41:58.803Z,0
2016-11-12T01:42:58.843Z,0
2016-11-12T01:43:58.899Z,0
2016-11-12T01:44:58.960Z,0
2016-11-12T01:45:59.028Z,0
2016-11-12T01:46:59.086Z,0
2016-11-12T01:47:59.126Z,0
2016-11-12T01:48:59.182Z,0
2016-11-12T01:49:59.241Z,0
2016-11-12T01:50:59.343Z,0
2016-11-12T01:51:59.338Z,0
2016-11-12T01:52:59.405Z,0
2016-11-12T01:53:59.458Z,0
2016-11-12T01:54:59.515Z,0
2016-11-12T01:55:59.587Z,0
2016-11-12T01:56:59.611Z,0
2016-11-12T01:57:59.669Z,0
2016-11-12T01:58:59.737Z,0
2016-11-12T01:59:59.795Z,0
2016-11-12T02:00:59.833Z,0
2016-11-12T02:01:59.908Z,0
2016-11-12T02:02:59.963Z,0
2016-11-12T02:04:00.005Z,0
2016-11-12T02:05:00.093Z,0
2016-11-12T02:06:00.135Z,0
2016-11-12T02:07:00.202Z,0
2016-11-12T02:08:00.261Z,0
2016-11-12T02:09:00.305Z,0
2016-11-12T02:10:00.353Z,0
2016-11-12T02:11:00.410Z,0
2016-11-12T02:12:00.463Z,0
2016-11-12T02:13:00.523Z,0
2016-11-12T02:14:00.571Z,0
2016-11-12T02:15:00.655Z,0
2016-11-12T02:16:00.687Z,0
2016-11-12T02:17:00.769Z,0
2016-11-12T02:18:00.796Z,0
2016-11-12T02:19:00.856Z,0
2016-11-12T02:20:00.935Z,0
2016-11-12T02:21:00.956Z,0
2016-11-12T02:22:01.080Z,0
2016-11-12T02:23:01.083Z,0
2016-11-12T02:24:01.143Z,0
2016-11-12T02:25:01.189Z,0
2016-11-12T02:26:01.249Z,0
2016-11-12T02:27:01.293Z,0
2016-11-12T02:28:01.386Z,0
2016-11-12T02:29:01.408Z,0
2016-11-12T02:30:01.470Z,0
2016-11-12T02:31:01.554Z,0
2016-11-12T02:32:01.586Z,0
2016-11-12T02:33:01.633Z,0
2016-11-12T02:34:01.709Z,0
2016-11-12T02:35:01.780Z,0
2016-11-12T02:36:01.829Z,0
2016-11-12T02:37:01.857Z,0
2016-11-12T02:38:01.913Z,0
2016-11-12T02:39:01.990Z,0
2016-11-12T02:40:02.038Z,0
2016-11-12T02:41:02.111Z,0
2016-11-12T02:42:02.171Z,0
2016-11-12T02:43:02.215Z,0
2016-11-12T02:44:02.277Z,0
2016-11-12T02:45:02.322Z,0
2016-11-12T02:46:02.370Z,0
2016-11-12T02:47:02.454Z,0
2016-11-12T02:48:02.505Z,0
2016-11-12T02:49:02.551Z,0
2016-11-12T02:50:02.928Z,0
2016-11-12T02:51:02.667Z,0
2016-11-12T02:52:02.719Z,0
2016-11-12T02:53:02.777Z,0
2016-11-12T02:54:02.849Z,0
2016-11-12T02:55:03.197Z,0
2016-11-12T02:56:02.938Z,0
2016-11-12T02:57:03.019Z,0
2016-11-12T02:58:03.053Z,0
2016-11-12T02:59:03.410Z,0
2016-11-12T03:00:03.179Z,0
2016-11-12T03:01:03.214Z,0
2016-11-12T03:02:03.296Z,0
2016-11-12T03:03:03.352Z,0
2016-11-12T03:04:03.396Z,0
2016-11-12T03:05:03.430Z,0
2016-11-12T03:06:03.500Z,0
2016-11-12T03:07:03.562Z,0
2016-11-12T03:08:03.599Z,0
2016-11-12T03:09:03.671Z,0
2016-11-12T03:10:03.743Z,0
2016-11-12T03:11:03.775Z,0
2016-11-12T03:12:04.179Z,0
2016-11-12T03:13:03.891Z,0
2016-11-12T03:14:04.239Z,0
2016-11-12T03:15:04.036Z,0
2016-11-12T03:16:04.084Z,0
2016-11-12T03:17:04.118Z,0
2016-11-12T03:18:04.182Z,0
2016-11-12T03:19:04.226Z,0
2016-11-12T03:20:04.302Z,0
2016-11-12T03:21:04.337Z,0
2016-11-12T03:22:04.401Z,0
2016-11-12T03:23:04.462Z,0
2016-11-12T03:24:04.518Z,0
2016-11-12T03:25:04.589Z,0
2016-11-12T03:26:04.611Z,0
2016-11-12T03:27:04.688Z,0
2016-11-12T03:28:04.722Z,0
2016-11-12T03:29:04.782Z,0
2016-11-12T03:30:04.869Z,0
2016-11-12T03:31:04.911Z,0
2016-11-12T03:32:04.978Z,0
2016-11-12T03:33:05.018Z,0
2016-11-12T03:34:05.403Z,0
2016-11-12T03:35:05.121Z,0
2016-11-12T03:36:05.191Z,0
2016-11-12T03:37:05.257Z,0
2016-11-12T03:38:05.318Z,0
2016-11-12T03:39:05.359Z,0
2016-11-12T03:40:05.425Z,0
2016-11-12T03:41:05.478Z,0
2016-11-12T03:42:05.516Z,0
2016-11-12T03:43:05.584Z,0
2016-11-12T03:44:05.633Z,0
2016-11-12T03:45:05.698Z,0
2016-11-12T03:46:05.736Z,0
2016-11-12T03:47:05.816Z,0
2016-11-12T03:48:05.866Z,0
2016-11-12T03:49:05.935Z,0
2016-11-12T03:50:05.972Z,0
2016-11-12T03:51:06.026Z,0
2016-11-12T03:52:06.091Z,0
2016-11-12T03:53:06.136Z,0
2016-11-12T03:54:06.197Z,0
2016-11-12T03:55:06.567Z,0
2016-11-12T03:56:06.314Z,0
2016-11-12T03:57:06.396Z,0
2016-11-12T03:58:06.426Z,0
2016-11-12T03:59:06.460Z,0
2016-11-12T04:00:06.848Z,0
2016-11-12T04:01:06.581Z,0
2016-11-12T04:02:06.648Z,0
2016-11-12T04:03:06.701Z,0
2016-11-12T04:04:06.799Z,0
2016-11-12T04:05:06.813Z,0
2016-11-12T04:06:06.868Z,0
2016-11-12T04:07:06.947Z,0
2016-11-12T04:08:06.995Z,0
2016-11-12T04:09:07.044Z,0
2016-11-12T04:10:07.107Z,0
2016-11-12T04:11:07.173Z,0
2016-11-12T04:12:07.188Z,0
2016-11-12T04:13:07.269Z,0
2016-11-12T04:14:07.325Z,0
2016-11-12T04:15:07.382Z,0
2016-11-12T04:16:07.435Z,0
2016-11-12T04:17:07.493Z,0
2016-11-12T04:18:07.544Z,0
2016-11-12T04:19:07.586Z,0
2016-11-12T04:20:07.661Z,0
2016-11-12T04:21:07.712Z,0
2016-11-12T04:22:07.790Z,0
2016-11-12T04:23:07.813Z,0
2016-11-12T04:24:07.864Z,0
2016-11-12T04:25:07.950Z,0
2016-11-12T04:26:07.992Z,0
2016-11-12T04:27:08.039Z,0
2016-11-12T04:28:08.127Z,0
2016-11-12T04:29:08.146Z,0
2016-11-12T04:30:08.207Z,0
2016-11-12T04:31:08.264Z,0
2016-11-12T04:32:08.342Z,0
2016-11-12T04:33:08.399Z,0
2016-11-12T04:34:08.462Z,0
2016-11-12T04:35:08.790Z,0
2016-11-12T04:36:08.559Z,0
2016-11-12T04:37:08.633Z,0
2016-11-12T04:38:08.676Z,0
2016-11-12T04:39:08.724Z,0
2016-11-12T04:40:08.785Z,0
2016-11-12T04:41:08.842Z,0
2016-11-12T04:42:08.892Z,0
2016-11-12T04:43:08.953Z,0
2016-11-12T04:44:09.010Z,0
2016-11-12T04:45:09.083Z,0
2016-11-12T04:46:09.100Z,0
2016-11-12T04:47:09.167Z,0
2016-11-12T04:48:09.249Z,0
2016-11-12T04:49:09.327Z,0
2016-11-12T04:50:09.351Z,0
2016-11-12T04:51:09.408Z,0
2016-11-12T04:52:09.472Z,0
2016-11-12T04:53:09.501Z,0
2016-11-12T04:54:09.550Z,0
2016-11-12T04:55:09.625Z,0
2016-11-12T04:56:09.686Z,0
2016-11-12T04:57:09.732Z,0
2016-11-12T04:58:09.802Z,0
2016-11-12T04:59:09.867Z,0
2016-11-12T05:00:09.930Z,0
2016-11-12T05:01:09.955Z,0
2016-11-12T05:02:10.011Z,0
2016-11-12T05:03:10.063Z,0
2016-11-12T05:04:10.138Z,0
2016-11-12T05:05:10.486Z,0
2016-11-12T05:06:10.246Z,0
2016-11-12T05:07:10.301Z,0
2016-11-12T05:08:10.648Z,0
2016-11-12T05:09:10.416Z,0
2016-11-12T05:10:10.477Z,0
2016-11-12T05:11:10.545Z,0
2016-11-12T05:12:10.582Z,0
2016-11-12T05:13:10.632Z,0
2016-11-12T05:14:10.703Z,0
2016-11-12T05:15:11.033Z,0
2016-11-12T05:16:10.801Z,0
2016-11-12T05:17:10.850Z,0
2016-11-12T05:18:10.911Z,0
2016-11-12T05:19:10.969Z,0
2016-11-12T05:20:11.028Z,0
2016-11-12T05:21:11.066Z,0
2016-11-12T05:22:11.137Z,0
2016-11-12T05:23:11.209Z,0
2016-11-12T05:24:11.249Z,0
2016-11-12T05:25:11.307Z,0
2016-11-12T05:26:11.381Z,0
2016-11-12T05:27:11.417Z,0
2016-11-12T05:28:11.465Z,0
2016-11-12T05:29:11.535Z,0
2016-11-12T05:30:11.580Z,0
2016-11-12T05:31:11.656Z,0
2016-11-12T05:32:11.699Z,0
2016-11-12T05:33:11.762Z,0
2016-11-12T05:34:11.793Z,0
2016-11-12T05:35:11.870Z,0
2016-11-12T05:36:11.930Z,0
2016-11-12T05:37:11.985Z,0
2016-11-12T05:38:12.029Z,0
2016-11-12T05:39:12.095Z,0
2016-11-12T05:40:12.158Z,0
2016-11-12T05:41:12.209Z,0
2016-11-12T05:42:12.279Z,0
2016-11-12T05:43:12.320Z,0
2016-11-12T05:44:12.402Z,0
2016-11-12T05:45:12.436Z,0
2016-11-12T05:46:12.467Z,0
2016-11-12T05:47:12.529Z,0
2016-11-12T05:48:12.610Z,0
2016-11-12T05:49:12.650Z,0
2016-11-12T05:50:12.710Z,0
2016-11-12T05:51:12.788Z,0
2016-11-12T05:52:12.817Z,0
2016-11-12T05:53:12.863Z,0
2016-11-12T05:54:12.918Z,0
2016-11-12T05:55:12.992Z,0
2016-11-12T05:56:13.056Z,0
2016-11-12T05:57:13.107Z,0
2016-11-12T05:58:13.172Z,0
2016-11-12T05:59:13.216Z,0
2016-11-12T06:00:13.291Z,4
2016-11-12T06:01:13.322Z,4
2016-11-12T06:02:13.394Z,4
2016-11-12T06:03:13.470Z,4
2016-11-12T06:04:13.480Z,0
2016-11-12T06:05:13.560Z,4
2016-11-12T06:06:13.604Z,4
2016-11-12T06:07:13.667Z,4
2016-11-12T06:08:13.714Z,8
2016-11-12T06:09:13.765Z,4
2016-11-12T06:10:13.822Z,8
2016-11-12T06:11:13.880Z,8
2016-11-12T06:12:13.941Z,12
2016-11-12T06:13:13.997Z,8
2016-11-12T06:14:14.055Z,12
2016-11-12T06:15:14.108Z,12
2016-11-12T06:16:14.165Z,12
2016-11-12T06:17:14.222Z,16
2016-11-12T06:18:14.264Z,16
2016-11-12T06:19:14.650Z,16
2016-11-12T06:20:14.399Z,20
2016-11-12T06:21:14.732Z,24
2016-11-12T06:22:14.510Z,24
2016-11-12T06:23:14.581Z,24
2016-11-12T06:24:14.600Z,24
2016-11-12T06:25:14.682Z,28
2016-11-12T06:26:14.736Z,28
2016-11-12T06:27:14.775Z,32
2016-11-12T06:28:14.855Z,32
2016-11-12T06:29:14.903Z,36
2016-11-12T06:30:14.962Z,40
2016-11-12T06:31:15.007Z,44
2016-11-12T06:32:15.054Z,44
2016-11-12T06:33:15.118Z,48
2016-11-12T06:34:15.189Z,52
2016-11-12T06:35:15.237Z,52
2016-11-12T06:36:15.281Z,56
2016-11-12T06:37:15.348Z,56
2016-11-12T06:38:15.411Z,60
2016-11-12T06:39:15.455Z,64
2016-11-12T06:40:15.512Z,68
2016-11-12T06:41:15.577Z,72
2016-11-12T06:42:15.631Z,76
2016-11-12T06:43:15.696Z,84
2016-11-12T06:44:15.744Z,84
2016-11-12T06:45:15.791Z,92
2016-11-12T06:46:15.871Z,96
2016-11-12T06:47:15.918Z,100
2016-11-12T06:48:15.983Z,100
2016-11-12T06:49:16.043Z,104
2016-11-12T06:50:16.071Z,108
2016-11-12T06:51:16.135Z,112
2016-11-12T06:52:16.176Z,116
2016-11-12T06:53:16.247Z,120
2016-11-12T06:54:16.301Z,124
2016-11-12T06:55:16.370Z,136
2016-11-12T06:56:16.433Z,144
2016-11-12T06:57:16.475Z,160
2016-11-12T06:58:16.523Z,172
2016-11-12T06:59:16.588Z,184
2016-11-12T07:00:16.621Z,192
2016-11-12T07:01:16.693Z,192
2016-11-12T07:02:16.745Z,200
2016-11-12T07:03:16.800Z,204
2016-11-12T07:04:16.871Z,208
2016-11-12T07:05:16.938Z,208
2016-11-12T07:06:16.965Z,220
2016-11-12T07:07:17.037Z,248
2016-11-12T07:08:17.069Z,252
2016-11-12T07:09:17.426Z,244
2016-11-12T07:10:17.203Z,236
2016-11-12T07:11:17.266Z,232
2016-11-12T07:12:17.328Z,240
2016-11-12T07:13:17.375Z,252
2016-11-12T07:14:17.424Z,256
2016-11-12T07:15:17.482Z,264
2016-11-12T07:16:17.524Z,272
2016-11-12T07:17:17.588Z,272
2016-11-12T07:18:17.651Z,268
2016-11-12T07:19:17.701Z,256
2016-11-12T07:20:17.739Z,248
2016-11-12T07:21:17.809Z,256
2016-11-12T07:22:17.881Z,276
2016-11-12T07:23:17.943Z,308
2016-11-12T07:24:18.005Z,332
2016-11-12T07:25:18.040Z,340
2016-11-12T07:26:18.100Z,344
2016-11-12T07:27:18.167Z,348
2016-11-12T07:28:18.202Z,324
2016-11-12T07:29:18.272Z,312
2016-11-12T07:30:18.311Z,332
2016-11-12T07:31:18.372Z,356
2016-11-12T07:32:18.411Z,364
2016-11-12T07:33:18.489Z,368
2016-11-12T07:34:18.560Z,360
2016-11-12T07:35:18.596Z,356
2016-11-12T07:36:18.666Z,364
2016-11-12T07:37:18.720Z,376
2016-11-12T07:38:18.797Z,392
2016-11-12T07:39:18.843Z,396
2016-11-12T07:40:18.902Z,396
2016-11-12T07:41:18.935Z,392
2016-11-12T07:42:18.998Z,384
2016-11-12T07:43:19.064Z,388
2016-11-12T07:44:19.121Z,396
2016-11-12T07:45:19.162Z,420
2016-11-12T07:46:19.218Z,444
2016-11-12T07:47:19.288Z,448
2016-11-12T07:48:19.331Z,444
2016-11-12T07:49:19.394Z,452
2016-11-12T07:50:19.471Z,468
2016-11-12T07:51:19.520Z,492
2016-11-12T07:52:19.569Z,496
2016-11-12T07:53:19.618Z,488
2016-11-12T07:54:19.661Z,492
2016-11-12T07:55:19.722Z,524
2016-11-12T07:56:19.788Z,564
2016-11-12T07:57:19.857Z,584
2016-11-12T07:58:19.891Z,588
2016-11-12T07:59:19.950Z,592
2016-11-12T08:00:20.001Z,592
2016-11-12T08:01:20.078Z,604
2016-11-12T08:02:20.131Z,632
2016-11-12T08:03:20.173Z,660
2016-11-12T08:04:20.250Z,668
2016-11-12T08:05:20.286Z,668
2016-11-12T08:06:20.343Z,680
2016-11-12T08:07:20.401Z,676
2016-11-12T08:08:20.457Z,688
2016-11-12T08:09:20.512Z,704
2016-11-12T08:10:20.556Z,736
2016-11-12T08:11:20.647Z,772
2016-11-12T08:12:20.705Z,804
2016-11-12T08:13:20.746Z,812
2016-11-12T08:14:20.815Z,832
2016-11-12T08:15:20.847Z,844
2016-11-12T08:16:20.917Z,880
2016-11-12T08:17:20.963Z,936
2016-11-12T08:18:21.041Z,976
2016-11-12T08:19:21.083Z,1004
2016-11-12T08:20:21.123Z,1044
2016-11-12T08:21:21.185Z,1028
2016-11-12T08:22:21.242Z,1048
2016-11-12T08:23:21.304Z,1096
2016-11-12T08:24:21.354Z,1116
2016-11-12T08:25:21.420Z,1128
2016-11-12T08:26:21.492Z,1192
2016-11-12T08:27:21.533Z,1228
2016-11-12T08:28:21.592Z,1204
2016-11-12T08:29:21.649Z,1176
2016-11-12T08:30:21.682Z,1180
2016-11-12T08:31:21.754Z,1188
2016-11-12T08:32:21.798Z,1184
2016-11-12T08:33:21.889Z,1208
2016-11-12T08:34:21.909Z,1208
2016-11-12T08:35:21.982Z,1256
2016-11-12T08:36:22.037Z,1264
2016-11-12T08:37:22.099Z,1300
2016-11-12T08:38:22.140Z,1320
2016-11-12T08:39:22.208Z,1364
2016-11-12T08:40:22.269Z,1424
2016-11-12T08:41:22.305Z,1480
2016-11-12T08:42:22.364Z,1512
2016-11-12T08:43:22.440Z,1516
2016-11-12T08:44:22.496Z,1400
2016-11-12T08:45:22.532Z,1300
2016-11-12T08:46:22.610Z,1228
2016-11-12T08:47:22.667Z,1200
2016-11-12T08:48:22.728Z,1176
2016-11-12T08:49:22.767Z,1168
2016-11-12T08:50:22.826Z,1176
2016-11-12T08:51:22.887Z,1212
2016-11-12T08:52:22.943Z,1268
2016-11-12T08:53:23.002Z,1312
2016-11-12T08:54:23.051Z,1332
2016-11-12T08:55:23.111Z,1340
2016-11-12T08:56:23.170Z,1360
2016-11-12T08:57:23.243Z,1400
2016-11-12T08:58:23.294Z,1436
2016-11-12T08:59:23.331Z,1432
2016-11-12T09:00:23.396Z,1384
2016-11-12T09:01:23.475Z,1356
2016-11-12T09:02:23.503Z,1316
2016-11-12T09:03:23.574Z,1312
2016-11-12T09:04:23.623Z,1284
2016-11-12T09:05:23.700Z,1204
2016-11-12T09:06:23.749Z,1152
2016-11-12T09:07:23.787Z,1144
2016-11-12T09:08:23.877Z,1192
2016-11-12T09:09:23.913Z,1296
2016-11-12T09:10:23.966Z,1356
2016-11-12T09:11:24.020Z,1432
2016-11-12T09:12:24.084Z,1476
2016-11-12T09:13:24.126Z,1528
2016-11-12T09:14:24.189Z,1544
2016-11-12T09:15:24.254Z,1500
2016-11-12T09:16:24.295Z,1404
2016-11-12T09:17:24.391Z,1372
2016-11-12T09:18:24.419Z,1360
2016-11-12T09:19:24.481Z,1376
2016-11-12T09:20:24.523Z,1424
2016-11-12T09:21:24.587Z,1456
2016-11-12T09:22:24.654Z,1484
2016-11-12T09:23:24.694Z,1476
2016-11-12T09:24:24.766Z,1484
2016-11-12T09:25:24.831Z,1488
2016-11-12T09:26:24.866Z,1480
2016-11-12T09:27:24.919Z,1476
2016-11-12T09:28:24.970Z,1488
2016-11-12T09:29:25.056Z,1520
2016-11-12T09:30:25.106Z,1560
2016-11-12T09:31:25.165Z,1564
2016-11-12T09:32:25.233Z,1536
2016-11-12T09:33:25.263Z,1516
2016-11-12T09:34:25.340Z,1508
2016-11-12T09:35:25.369Z,1480
2016-11-12T09:36:25.445Z,1452
2016-11-12T09:37:25.503Z,1448
2016-11-12T09:38:25.553Z,1452
2016-11-12T09:39:25.610Z,1464
2016-11-12T09:40:25.663Z,1492
2016-11-12T09:41:25.741Z,1532
2016-11-12T09:42:25.785Z,1580
2016-11-12T09:43:25.837Z,1668
2016-11-12T09:44:25.906Z,1656
2016-11-12T09:45:25.966Z,1660
2016-11-12T09:46:26.007Z,1660
2016-11-12T09:47:26.057Z,1608
2016-11-12T09:48:26.131Z,1564
2016-11-12T09:49:26.171Z,1552
2016-11-12T09:50:26.268Z,1560
2016-11-12T09:51:26.317Z,1600
2016-11-12T09:52:26.349Z,1648
2016-11-12T09:53:26.414Z,1672
2016-11-12T09:54:26.468Z,1660
2016-11-12T09:55:26.512Z,1632
2016-11-12T09:56:26.579Z,1588
2016-11-12T09:57:26.628Z,1552
2016-11-12T09:58:27.066Z,1560
2016-11-12T09:59:26.736Z,1612
2016-11-12T10:00:26.804Z,1756
2016-11-12T10:01:26.858Z,1964
2016-11-12T10:02:26.944Z,2208
2016-11-12T10:03:27.002Z,2260
2016-11-12T10:04:27.045Z,2248
2016-11-12T10:05:27.098Z,2048
2016-11-12T10:06:27.151Z,1916
2016-11-12T10:07:27.203Z,1848
2016-11-12T10:08:27.254Z,1848
2016-11-12T10:09:27.333Z,2224
2016-11-12T10:10:27.399Z,2592
2016-11-12T10:11:27.442Z,2660
2016-11-12T10:12:27.494Z,2884
2016-11-12T10:13:27.551Z,3108
2016-11-12T10:14:27.607Z,2984
2016-11-12T10:15:27.959Z,3064
2016-11-12T10:16:27.734Z,2708
2016-11-12T10:17:27.779Z,3312
2016-11-12T10:18:27.842Z,3040
2016-11-12T10:19:27.892Z,2620
2016-11-12T10:20:27.964Z,2496
2016-11-12T10:21:28.002Z,2568
2016-11-12T10:22:28.076Z,2612
2016-11-12T10:23:28.102Z,2608
2016-11-12T10:24:28.162Z,2596
2016-11-12T10:25:28.226Z,2596
2016-11-12T10:26:28.305Z,2692
2016-11-12T10:27:28.359Z,2844
2016-11-12T10:28:28.384Z,2900
2016-11-12T10:29:28.468Z,3116
2016-11-12T10:30:28.508Z,3268
2016-11-12T10:31:28.590Z,3444
2016-11-12T10:32:28.634Z,3200
2016-11-12T10:33:28.697Z,2620
2016-11-12T10:34:28.731Z,2440
2016-11-12T10:35:28.806Z,2420
2016-11-12T10:36:28.858Z,2132
2016-11-12T10:37:29.145Z,1944
2016-11-12T10:38:29.191Z,2308
2016-11-12T10:39:29.027Z,2624
2016-11-12T10:40:29.082Z,2364
2016-11-12T10:41:29.138Z,2196
2016-11-12T10:42:29.184Z,2188
2016-11-12T10:43:29.252Z,2204
2016-11-12T10:44:29.324Z,2068
2016-11-12T10:45:29.376Z,2004
2016-11-12T10:46:29.411Z,1812
2016-11-12T10:47:29.490Z,1768
2016-11-12T10:48:29.550Z,1896
2016-11-12T10:49:29.588Z,2124
2016-11-12T10:50:29.653Z,2336
2016-11-12T10:51:29.718Z,2460
2016-11-12T10:52:29.775Z,2672
2016-11-12T10:53:29.811Z,2412
2016-11-12T10:54:29.888Z,2872
2016-11-12T10:55:29.953Z,3368
2016-11-12T10:56:30.001Z,2948
2016-11-12T10:57:30.074Z,3152
2016-11-12T10:58:30.115Z,3428
2016-11-12T10:59:30.172Z,3712
2016-11-12T11:00:30.238Z,3612
2016-11-12T11:01:30.304Z,3892
2016-11-12T11:02:30.348Z,3432
2016-11-12T11:03:30.394Z,3532
2016-11-12T11:04:30.449Z,3208
2016-11-12T11:05:30.512Z,2660
2016-11-12T11:06:30.780Z,3076
2016-11-12T11:07:30.635Z,3592
2016-11-12T11:08:30.681Z,3024
2016-11-12T11:09:30.746Z,2352
2016-11-12T11:10:30.801Z,1504
2016-11-12T11:11:30.844Z,1744
2016-11-12T11:12:30.903Z,2136
2016-11-12T11:13:30.955Z,2652
2016-11-12T11:14:31.041Z,2828
2016-11-12T11:15:31.089Z,3032
2016-11-12T11:16:31.160Z,2588
2016-11-12T11:17:31.215Z,2268
2016-11-12T11:18:31.274Z,2256
2016-11-12T11:19:31.343Z,2604
2016-11-12T11:20:31.358Z,2900
2016-11-12T11:21:31.405Z,2700
2016-11-12T11:22:31.484Z,2540
2016-11-12T11:23:31.544Z,2444
2016-11-12T11:24:31.595Z,2516
2016-11-12T11:25:31.636Z,2604
2016-11-12T11:26:31.703Z,2640
2016-11-12T11:27:31.754Z,2528
2016-11-12T11:28:31.819Z,2376
2016-11-12T11:29:31.879Z,2248
2016-11-12T11:30:31.972Z,2224
2016-11-12T11:31:31.998Z,2332
2016-11-12T11:32:32.046Z,2340
2016-11-12T11:33:32.103Z,2248
2016-11-12T11:34:32.366Z,2152
2016-11-12T11:35:32.434Z,2196
2016-11-12T11:36:32.294Z,2316
2016-11-12T11:37:32.528Z,2400
2016-11-12T11:38:32.385Z,2404
2016-11-12T11:39:32.456Z,2368
2016-11-12T11:40:32.527Z,2376
2016-11-12T11:41:32.553Z,2380
2016-11-12T11:42:32.619Z,2380
2016-11-12T11:43:32.702Z,2328
2016-11-12T11:44:32.751Z,2276
2016-11-12T11:45:32.787Z,2244
2016-11-12T11:46:32.868Z,2260
2016-11-12T11:47:32.919Z,2288
2016-11-12T11:48:32.973Z,2320
2016-11-12T11:49:33.004Z,2308
2016-11-12T11:50:33.074Z,2308
2016-11-12T11:51:33.153Z,2272
2016-11-12T11:52:33.206Z,2276
2016-11-12T11:53:33.253Z,2340
2016-11-12T11:54:33.326Z,2340
2016-11-12T11:55:33.353Z,2340
2016-11-12T11:56:33.414Z,2364
2016-11-12T11:57:33.475Z,2392
2016-11-12T11:58:33.551Z,2396
2016-11-12T11:59:33.603Z,2316
2016-11-12T12:00:33.662Z,2204
2016-11-12T12:01:33.726Z,2280
2016-11-12T12:02:33.773Z,2472
2016-11-12T12:03:34.021Z,2740
2016-11-12T12:04:34.083Z,2636
2016-11-12T12:05:33.930Z,2308
2016-11-12T12:06:34.209Z,2260
2016-11-12T12:07:34.068Z,2440
2016-11-12T12:08:34.120Z,2452
2016-11-12T12:09:34.169Z,2468
2016-11-12T12:10:34.227Z,2356
2016-11-12T12:11:34.282Z,2272
2016-11-12T12:12:34.319Z,2252
2016-11-12T12:13:34.385Z,2324
2016-11-12T12:14:34.461Z,2464
2016-11-12T12:15:34.492Z,2664
2016-11-12T12:16:34.560Z,3088
2016-11-12T12:17:34.614Z,3684
2016-11-12T12:18:34.674Z,4492
2016-11-12T12:19:34.770Z,4512
2016-11-12T12:20:34.795Z,4296
2016-11-12T12:21:34.856Z,4044
2016-11-12T12:22:34.907Z,4640
2016-11-12T12:23:34.962Z,6380
2016-11-12T12:24:35.043Z,6828
2016-11-12T12:25:35.090Z,7100
2016-11-12T12:26:35.148Z,7692
2016-11-12T12:27:35.188Z,6636
2016-11-12T12:28:35.266Z,4892
2016-11-12T12:29:35.309Z,6108
2016-11-12T12:30:35.354Z,5996
2016-11-12T12:31:35.429Z,5292
2016-11-12T12:32:35.684Z,4572
2016-11-12T12:33:35.527Z,4336
2016-11-12T12:34:35.611Z,4772
2016-11-12T12:35:35.649Z,4544
2016-11-12T12:36:35.726Z,3892
2016-11-12T12:37:35.757Z,4172
2016-11-12T12:38:35.826Z,4656
2016-11-12T12:39:35.887Z,4760
2016-11-12T12:40:35.935Z,4840
2016-11-12T12:41:35.992Z,4480
2016-11-12T12:42:36.065Z,3848
2016-11-12T12:43:36.117Z,3428
2016-11-12T12:44:36.159Z,4084
2016-11-12T12:45:36.244Z,4696
2016-11-12T12:46:36.274Z,4300
2016-11-12T12:47:36.361Z,4288
2016-11-12T12:48:36.413Z,4776
2016-11-12T12:49:36.458Z,4944
2016-11-12T12:50:36.516Z,4504
2016-11-12T12:51:36.560Z,4384
2016-11-12T12:52:36.680Z,3600
2016-11-12T12:53:36.680Z,2144
2016-11-12T12:54:36.770Z,2540
2016-11-12T12:55:36.818Z,3504
2016-11-12T12:56:36.854Z,3580
2016-11-12T12:57:36.956Z,4148
2016-11-12T12:58:36.959Z,4100
2016-11-12T12:59:37.046Z,4612
2016-11-12T13:00:37.081Z,4280
2016-11-12T13:01:37.325Z,4140
2016-11-12T13:02:37.217Z,4652
2016-11-12T13:03:37.258Z,4988
2016-11-12T13:04:37.315Z,4152
2016-11-12T13:05:37.356Z,4404
2016-11-12T13:06:37.427Z,4936
2016-11-12T13:07:37.468Z,3800
2016-11-12T13:08:37.549Z,4140
2016-11-12T13:09:37.623Z,4108
2016-11-12T13:10:37.655Z,3640
2016-11-12T13:11:37.712Z,3780
2016-11-12T13:12:37.775Z,3720
2016-11-12T13:13:37.836Z,3776
2016-11-12T13:14:37.881Z,4036
2016-11-12T13:15:37.944Z,3984
2016-11-12T13:16:37.982Z,3772
2016-11-12T13:17:38.056Z,3384
2016-11-12T13:18:38.124Z,3220
2016-11-12T13:19:38.189Z,3152
2016-11-12T13:20:38.218Z,2476
2016-11-12T13:21:38.286Z,2580
2016-11-12T13:22:38.340Z,3276
2016-11-12T13:23:38.392Z,4276
2016-11-12T13:24:38.459Z,2460
2016-11-12T13:25:38.525Z,2216
2016-11-12T13:26:38.576Z,2520
2016-11-12T13:27:38.642Z,2988
2016-11-12T13:28:38.692Z,2380
2016-11-12T13:29:38.760Z,2540
2016-11-12T13:30:38.819Z,2700
2016-11-12T13:31:38.847Z,3100
2016-11-12T13:32:38.925Z,1868
2016-11-12T13:33:38.983Z,2536
2016-11-12T13:34:39.021Z,2428
2016-11-12T13:35:39.103Z,2416
2016-11-12T13:36:39.141Z,2312
2016-11-12T13:37:39.217Z,1860
2016-11-12T13:38:39.275Z,3004
2016-11-12T13:39:39.311Z,2140
2016-11-12T13:40:39.404Z,1292
2016-11-12T13:41:39.429Z,1836
2016-11-12T13:42:39.491Z,2208
2016-11-12T13:43:39.551Z,2704
2016-11-12T13:44:39.580Z,1584
2016-11-12T13:45:39.653Z,2620
2016-11-12T13:46:39.717Z,1492
2016-11-12T13:47:39.767Z,1684
2016-11-12T13:48:39.830Z,2352
2016-11-12T13:49:39.901Z,1416
2016-11-12T13:50:39.944Z,1564
2016-11-12T13:51:40.014Z,1128
2016-11-12T13:52:40.054Z,1060
2016-11-12T13:53:40.131Z,1492
2016-11-12T13:54:40.181Z,1448
2016-11-12T13:55:40.219Z,1280
2016-11-12T13:56:40.294Z,1124
2016-11-12T13:57:40.341Z,1584
2016-11-12T13:58:40.403Z,2244
2016-11-12T13:59:40.474Z,1300
2016-11-12T14:00:40.496Z,1280
2016-11-12T14:01:40.588Z,1676
2016-11-12T14:02:40.641Z,2192